sensor_id;sensor_type;location;lat;lon;timestamp;temperature;humidity
52725;DHT22;38621;52.830;6.914;2023-07-20T00:01:13;15.20;99.90
52725;DHT22;38621;52.830;6.914;2023-07-20T00:03:39;15.20;99.90
52725;DHT22;38621;52.830;6.914;2023-07-20T00:06:05;15.30;99.90
52725;DHT22;38621;52.830;6.914;2023-07-20T00:08:30;15.30;99.90
52725;DHT22;38621;52.830;6.914;2023-07-20T00:10:56;15.20;99.90
52725;DHT22;38621;52.830;6.914;2023-07-20T00:13:22;15.20;99.90
52725;DHT22;38621;52.830;6.914;2023-07-20T00:15:48;15.10;99.90
52725;DHT22;38621;52.830;6.914;2023-07-20T00:18:13;15.10;99.90
52725;DHT22;38621;52.830;6.914;2023-07-20T00:20:39;15.10;99.90
52725;DHT22;38621;52.830;6.914;2023-07-20T00:23:05;15.10;99.90
52725;DHT22;38621;52.830;6.914;2023-07-20T00:25:31;15.00;99.90
52725;DHT22;38621;52.830;6.914;2023-07-20T00:27:57;15.00;99.90
52725;DHT22;38621;52.830;6.914;2023-07-20T00:30:23;15.00;99.90
52725;DHT22;38621;52.830;6.914;2023-07-20T00:32:48;15.00;99.90
52725;DHT22;38621;52.830;6.914;2023-07-20T00:35:14;15.00;99.90
52725;DHT22;38621;52.830;6.914;2023-07-20T00:37:40;15.00;99.90
52725;DHT22;38621;52.830;6.914;2023-07-20T00:40:06;15.00;99.90
52725;DHT22;38621;52.830;6.914;2023-07-20T00:42:35;14.90;99.90
52725;DHT22;38621;52.830;6.914;2023-07-20T00:45:01;15.00;99.90
52725;DHT22;38621;52.830;6.914;2023-07-20T00:47:27;14.90;99.90
52725;DHT22;38621;52.830;6.914;2023-07-20T00:49:54;14.90;99.90
52725;DHT22;38621;52.830;6.914;2023-07-20T00:52:21;14.90;99.90
52725;DHT22;38621;52.830;6.914;2023-07-20T00:54:49;14.80;99.90
52725;DHT22;38621;52.830;6.914;2023-07-20T00:57:15;14.80;99.90
52725;DHT22;38621;52.830;6.914;2023-07-20T00:59:44;14.80;99.90
52725;DHT22;38621;52.830;6.914;2023-07-20T01:02:10;14.80;99.90
52725;DHT22;38621;52.830;6.914;2023-07-20T01:04:35;14.80;99.90
52725;DHT22;38621;52.830;6.914;2023-07-20T01:12:30;14.80;99.90
52725;DHT22;38621;52.830;6.914;2023-07-20T01:14:58;14.80;99.90
52725;DHT22;38621;52.830;6.914;2023-07-20T01:17:24;14.80;99.90
52725;DHT22;38621;52.830;6.914;2023-07-20T01:19:50;14.80;99.90
52725;DHT22;38621;52.830;6.914;2023-07-20T01:33:10;14.70;99.90
52725;DHT22;38621;52.830;6.914;2023-07-20T01:35:38;14.60;99.90
52725;DHT22;38621;52.830;6.914;2023-07-20T01:38:06;14.70;99.90
52725;DHT22;38621;52.830;6.914;2023-07-20T01:40:33;14.70;99.90
52725;DHT22;38621;52.830;6.914;2023-07-20T01:42:59;14.70;99.90
52725;DHT22;38621;52.830;6.914;2023-07-20T01:45:25;14.60;99.90
52725;DHT22;38621;52.830;6.914;2023-07-20T01:47:52;14.60;99.90
52725;DHT22;38621;52.830;6.914;2023-07-20T01:50:18;14.50;99.90
52725;DHT22;38621;52.830;6.914;2023-07-20T01:52:43;14.50;99.90
52725;DHT22;38621;52.830;6.914;2023-07-20T01:55:09;14.40;99.90
52725;DHT22;38621;52.830;6.914;2023-07-20T01:57:35;14.40;99.90
52725;DHT22;38621;52.830;6.914;2023-07-20T02:00:01;14.40;99.90
52725;DHT22;38621;52.830;6.914;2023-07-20T02:02:27;14.30;99.90
52725;DHT22;38621;52.830;6.914;2023-07-20T02:04:53;14.30;99.90
52725;DHT22;38621;52.830;6.914;2023-07-20T02:07:19;14.20;99.90
52725;DHT22;38621;52.830;6.914;2023-07-20T02:09:45;14.10;99.90
52725;DHT22;38621;52.830;6.914;2023-07-20T02:12:10;14.00;99.90
52725;DHT22;38621;52.830;6.914;2023-07-20T02:14:36;14.00;99.90
52725;DHT22;38621;52.830;6.914;2023-07-20T02:17:02;13.90;99.90
52725;DHT22;38621;52.830;6.914;2023-07-20T02:19:29;13.80;99.90
52725;DHT22;38621;52.830;6.914;2023-07-20T02:21:55;13.70;99.90
52725;DHT22;38621;52.830;6.914;2023-07-20T02:24:21;13.60;99.90
52725;DHT22;38621;52.830;6.914;2023-07-20T02:26:46;13.50;99.90
52725;DHT22;38621;52.830;6.914;2023-07-20T02:29:12;13.50;99.90
52725;DHT22;38621;52.830;6.914;2023-07-20T02:31:38;13.40;99.90
52725;DHT22;38621;52.830;6.914;2023-07-20T02:34:07;13.40;99.90
52725;DHT22;38621;52.830;6.914;2023-07-20T02:36:34;13.30;99.90
52725;DHT22;38621;52.830;6.914;2023-07-20T02:39:00;13.20;99.90
52725;DHT22;38621;52.830;6.914;2023-07-20T02:41:33;13.20;99.90
52725;DHT22;38621;52.830;6.914;2023-07-20T02:43:58;13.10;99.90
52725;DHT22;38621;52.830;6.914;2023-07-20T02:46:24;13.00;99.90
52725;DHT22;38621;52.830;6.914;2023-07-20T02:48:50;12.90;99.90
52725;DHT22;38621;52.830;6.914;2023-07-20T02:51:15;12.90;99.90
52725;DHT22;38621;52.830;6.914;2023-07-20T02:53:41;12.80;99.90
52725;DHT22;38621;52.830;6.914;2023-07-20T02:56:07;12.70;99.90
52725;DHT22;38621;52.830;6.914;2023-07-20T02:58:34;12.70;99.90
52725;DHT22;38621;52.830;6.914;2023-07-20T03:01:02;12.60;99.90
52725;DHT22;38621;52.830;6.914;2023-07-20T03:03:28;12.60;99.90
52725;DHT22;38621;52.830;6.914;2023-07-20T03:05:54;12.60;99.90
52725;DHT22;38621;52.830;6.914;2023-07-20T03:08:21;12.60;99.90
52725;DHT22;38621;52.830;6.914;2023-07-20T03:10:47;12.50;99.90
52725;DHT22;38621;52.830;6.914;2023-07-20T03:13:13;12.50;99.90
52725;DHT22;38621;52.830;6.914;2023-07-20T03:15:39;12.40;99.90
52725;DHT22;38621;52.830;6.914;2023-07-20T03:18:05;12.40;99.90
52725;DHT22;38621;52.830;6.914;2023-07-20T03:20:31;12.40;99.90
52725;DHT22;38621;52.830;6.914;2023-07-20T03:22:57;12.40;99.90
52725;DHT22;38621;52.830;6.914;2023-07-20T03:25:22;12.30;99.90
52725;DHT22;38621;52.830;6.914;2023-07-20T03:27:48;12.30;99.90
52725;DHT22;38621;52.830;6.914;2023-07-20T03:30:14;12.30;99.90
52725;DHT22;38621;52.830;6.914;2023-07-20T03:32:40;12.30;99.90
52725;DHT22;38621;52.830;6.914;2023-07-20T03:35:06;12.30;99.90
52725;DHT22;38621;52.830;6.914;2023-07-20T03:37:32;12.30;99.90
52725;DHT22;38621;52.830;6.914;2023-07-20T03:40:00;12.30;99.90
52725;DHT22;38621;52.830;6.914;2023-07-20T03:42:26;12.30;99.90
52725;DHT22;38621;52.830;6.914;2023-07-20T03:44:51;12.30;99.90
52725;DHT22;38621;52.830;6.914;2023-07-20T03:47:17;12.30;99.90
52725;DHT22;38621;52.830;6.914;2023-07-20T03:49:42;12.30;99.90
52725;DHT22;38621;52.830;6.914;2023-07-20T03:52:08;12.30;99.90
52725;DHT22;38621;52.830;6.914;2023-07-20T03:54:34;12.30;99.90
52725;DHT22;38621;52.830;6.914;2023-07-20T03:57:00;12.20;99.90
52725;DHT22;38621;52.830;6.914;2023-07-20T03:59:26;12.20;99.90
52725;DHT22;38621;52.830;6.914;2023-07-20T04:01:52;12.20;99.90
52725;DHT22;38621;52.830;6.914;2023-07-20T04:04:17;12.20;99.90
52725;DHT22;38621;52.830;6.914;2023-07-20T04:06:43;12.20;99.90
52725;DHT22;38621;52.830;6.914;2023-07-20T04:09:12;12.20;99.90
52725;DHT22;38621;52.830;6.914;2023-07-20T04:11:38;12.20;99.90
52725;DHT22;38621;52.830;6.914;2023-07-20T04:14:04;12.10;99.90
52725;DHT22;38621;52.830;6.914;2023-07-20T04:16:30;12.10;99.90
52725;DHT22;38621;52.830;6.914;2023-07-20T04:18:56;12.10;99.90
52725;DHT22;38621;52.830;6.914;2023-07-20T04:21:23;12.20;99.90
52725;DHT22;38621;52.830;6.914;2023-07-20T04:23:48;12.20;99.90
52725;DHT22;38621;52.830;6.914;2023-07-20T04:26:14;12.20;99.90
52725;DHT22;38621;52.830;6.914;2023-07-20T04:28:41;12.20;99.90
52725;DHT22;38621;52.830;6.914;2023-07-20T04:31:12;12.20;99.90
52725;DHT22;38621;52.830;6.914;2023-07-20T04:33:38;12.20;99.90
52725;DHT22;38621;52.830;6.914;2023-07-20T04:36:04;12.30;99.90
52725;DHT22;38621;52.830;6.914;2023-07-20T04:38:30;12.30;99.90
52725;DHT22;38621;52.830;6.914;2023-07-20T04:40:56;12.40;99.90
52725;DHT22;38621;52.830;6.914;2023-07-20T04:43:22;12.40;99.90
52725;DHT22;38621;52.830;6.914;2023-07-20T04:45:47;12.50;99.90
52725;DHT22;38621;52.830;6.914;2023-07-20T04:48:14;12.60;99.90
52725;DHT22;38621;52.830;6.914;2023-07-20T04:50:42;12.60;99.90
52725;DHT22;38621;52.830;6.914;2023-07-20T04:53:11;12.70;99.90
52725;DHT22;38621;52.830;6.914;2023-07-20T04:55:39;12.80;99.90
52725;DHT22;38621;52.830;6.914;2023-07-20T04:58:05;12.80;99.90
52725;DHT22;38621;52.830;6.914;2023-07-20T05:00:33;12.90;99.90
52725;DHT22;38621;52.830;6.914;2023-07-20T05:02:59;13.00;99.90
52725;DHT22;38621;52.830;6.914;2023-07-20T05:05:25;13.10;99.90
52725;DHT22;38621;52.830;6.914;2023-07-20T05:07:50;13.10;99.90
52725;DHT22;38621;52.830;6.914;2023-07-20T05:10:17;13.30;99.90
52725;DHT22;38621;52.830;6.914;2023-07-20T05:12:43;13.30;99.90
52725;DHT22;38621;52.830;6.914;2023-07-20T05:15:09;13.40;99.90
52725;DHT22;38621;52.830;6.914;2023-07-20T05:17:35;13.40;99.90
52725;DHT22;38621;52.830;6.914;2023-07-20T05:20:01;13.50;99.90
52725;DHT22;38621;52.830;6.914;2023-07-20T05:22:26;13.60;99.90
52725;DHT22;38621;52.830;6.914;2023-07-20T05:24:52;13.70;99.90
52725;DHT22;38621;52.830;6.914;2023-07-20T05:27:18;13.80;99.90
52725;DHT22;38621;52.830;6.914;2023-07-20T05:29:46;13.90;99.90
52725;DHT22;38621;52.830;6.914;2023-07-20T05:32:15;14.00;99.90
52725;DHT22;38621;52.830;6.914;2023-07-20T05:34:41;14.10;99.90
52725;DHT22;38621;52.830;6.914;2023-07-20T05:37:06;14.10;99.90
52725;DHT22;38621;52.830;6.914;2023-07-20T05:39:33;14.20;99.90
52725;DHT22;38621;52.830;6.914;2023-07-20T05:41:59;14.30;99.90
52725;DHT22;38621;52.830;6.914;2023-07-20T05:44:24;14.30;99.90
52725;DHT22;38621;52.830;6.914;2023-07-20T05:46:50;14.40;99.90
52725;DHT22;38621;52.830;6.914;2023-07-20T05:49:16;14.50;99.90
52725;DHT22;38621;52.830;6.914;2023-07-20T05:51:41;14.60;99.90
52725;DHT22;38621;52.830;6.914;2023-07-20T05:54:07;14.70;99.90
52725;DHT22;38621;52.830;6.914;2023-07-20T05:56:33;14.70;99.90
52725;DHT22;38621;52.830;6.914;2023-07-20T05:58:59;14.80;99.90
52725;DHT22;38621;52.830;6.914;2023-07-20T06:01:24;14.90;99.90
52725;DHT22;38621;52.830;6.914;2023-07-20T06:03:53;14.90;99.90
52725;DHT22;38621;52.830;6.914;2023-07-20T06:06:18;15.00;99.90
52725;DHT22;38621;52.830;6.914;2023-07-20T06:08:44;15.10;99.90
52725;DHT22;38621;52.830;6.914;2023-07-20T06:11:11;15.20;99.90
52725;DHT22;38621;52.830;6.914;2023-07-20T06:13:36;15.30;99.90
52725;DHT22;38621;52.830;6.914;2023-07-20T06:16:02;15.30;99.90
52725;DHT22;38621;52.830;6.914;2023-07-20T06:18:29;15.40;99.90
52725;DHT22;38621;52.830;6.914;2023-07-20T06:20:56;15.40;99.90
52725;DHT22;38621;52.830;6.914;2023-07-20T06:23:22;15.50;99.90
52725;DHT22;38621;52.830;6.914;2023-07-20T06:25:48;15.60;99.90
52725;DHT22;38621;52.830;6.914;2023-07-20T06:28:14;15.70;99.90
52725;DHT22;38621;52.830;6.914;2023-07-20T06:30:40;15.70;99.90
52725;DHT22;38621;52.830;6.914;2023-07-20T06:33:06;15.70;99.90
52725;DHT22;38621;52.830;6.914;2023-07-20T06:35:32;15.80;99.90
52725;DHT22;38621;52.830;6.914;2023-07-20T06:37:58;15.80;99.90
52725;DHT22;38621;52.830;6.914;2023-07-20T06:40:25;15.80;99.90
52725;DHT22;38621;52.830;6.914;2023-07-20T06:42:51;15.90;99.90
52725;DHT22;38621;52.830;6.914;2023-07-20T06:45:17;16.00;99.90
52725;DHT22;38621;52.830;6.914;2023-07-20T06:47:42;16.00;99.90
52725;DHT22;38621;52.830;6.914;2023-07-20T06:50:09;16.00;99.90
52725;DHT22;38621;52.830;6.914;2023-07-20T06:52:35;16.00;99.90
52725;DHT22;38621;52.830;6.914;2023-07-20T06:55:01;16.10;99.90
52725;DHT22;38621;52.830;6.914;2023-07-20T06:57:27;16.20;99.90
52725;DHT22;38621;52.830;6.914;2023-07-20T06:59:52;16.30;99.90
52725;DHT22;38621;52.830;6.914;2023-07-20T07:02:19;16.50;99.90
52725;DHT22;38621;52.830;6.914;2023-07-20T07:04:45;16.60;99.90
52725;DHT22;38621;52.830;6.914;2023-07-20T07:07:14;16.70;99.90
52725;DHT22;38621;52.830;6.914;2023-07-20T07:09:41;16.70;99.90
52725;DHT22;38621;52.830;6.914;2023-07-20T07:12:07;16.70;99.90
52725;DHT22;38621;52.830;6.914;2023-07-20T07:14:33;16.60;99.90
52725;DHT22;38621;52.830;6.914;2023-07-20T07:16:59;16.50;99.90
52725;DHT22;38621;52.830;6.914;2023-07-20T07:19:24;16.40;99.90
52725;DHT22;38621;52.830;6.914;2023-07-20T07:21:50;16.50;99.90
52725;DHT22;38621;52.830;6.914;2023-07-20T07:24:16;16.50;99.90
52725;DHT22;38621;52.830;6.914;2023-07-20T07:26:42;16.50;99.90
52725;DHT22;38621;52.830;6.914;2023-07-20T07:29:08;16.70;99.90
52725;DHT22;38621;52.830;6.914;2023-07-20T07:31:34;16.80;99.90
52725;DHT22;38621;52.830;6.914;2023-07-20T07:34:01;17.10;99.90
52725;DHT22;38621;52.830;6.914;2023-07-20T07:36:27;17.30;99.90
52725;DHT22;38621;52.830;6.914;2023-07-20T07:38:53;17.50;99.90
52725;DHT22;38621;52.830;6.914;2023-07-20T07:41:19;17.60;99.90
52725;DHT22;38621;52.830;6.914;2023-07-20T07:43:46;17.50;99.90
52725;DHT22;38621;52.830;6.914;2023-07-20T07:46:11;17.20;99.90
52725;DHT22;38621;52.830;6.914;2023-07-20T07:48:37;17.10;99.90
52725;DHT22;38621;52.830;6.914;2023-07-20T07:51:03;17.10;99.90
52725;DHT22;38621;52.830;6.914;2023-07-20T07:53:29;17.20;99.90
52725;DHT22;38621;52.830;6.914;2023-07-20T07:55:54;17.40;99.90
52725;DHT22;38621;52.830;6.914;2023-07-20T07:58:21;17.40;99.90
52725;DHT22;38621;52.830;6.914;2023-07-20T08:00:46;17.50;99.90
52725;DHT22;38621;52.830;6.914;2023-07-20T08:03:13;17.70;99.90
52725;DHT22;38621;52.830;6.914;2023-07-20T08:05:39;17.80;99.90
52725;DHT22;38621;52.830;6.914;2023-07-20T08:08:04;17.90;99.90
52725;DHT22;38621;52.830;6.914;2023-07-20T08:10:30;18.00;99.90
52725;DHT22;38621;52.830;6.914;2023-07-20T08:12:56;18.10;99.90
52725;DHT22;38621;52.830;6.914;2023-07-20T08:15:22;18.30;99.90
52725;DHT22;38621;52.830;6.914;2023-07-20T08:17:48;18.40;99.90
52725;DHT22;38621;52.830;6.914;2023-07-20T08:20:15;18.50;99.90
52725;DHT22;38621;52.830;6.914;2023-07-20T08:22:43;18.20;99.90
52725;DHT22;38621;52.830;6.914;2023-07-20T08:25:09;18.00;99.90
52725;DHT22;38621;52.830;6.914;2023-07-20T08:27:35;17.80;99.90
52725;DHT22;38621;52.830;6.914;2023-07-20T08:30:01;17.60;99.90
52725;DHT22;38621;52.830;6.914;2023-07-20T08:32:28;17.70;99.90
52725;DHT22;38621;52.830;6.914;2023-07-20T08:34:53;17.90;99.90
52725;DHT22;38621;52.830;6.914;2023-07-20T08:37:19;18.20;99.90
52725;DHT22;38621;52.830;6.914;2023-07-20T08:39:45;18.50;99.90
52725;DHT22;38621;52.830;6.914;2023-07-20T08:42:12;18.60;99.90
52725;DHT22;38621;52.830;6.914;2023-07-20T08:44:41;18.30;99.90
52725;DHT22;38621;52.830;6.914;2023-07-20T08:47:10;18.00;99.90
52725;DHT22;38621;52.830;6.914;2023-07-20T08:49:39;17.70;99.90
52725;DHT22;38621;52.830;6.914;2023-07-20T08:52:05;17.80;99.90
52725;DHT22;38621;52.830;6.914;2023-07-20T08:54:31;18.00;99.90
52725;DHT22;38621;52.830;6.914;2023-07-20T08:57:04;18.30;99.90
52725;DHT22;38621;52.830;6.914;2023-07-20T08:59:31;18.70;99.90
52725;DHT22;38621;52.830;6.914;2023-07-20T09:01:58;19.00;99.90
52725;DHT22;38621;52.830;6.914;2023-07-20T09:04:24;19.20;99.90
52725;DHT22;38621;52.830;6.914;2023-07-20T09:06:50;19.10;99.90
52725;DHT22;38621;52.830;6.914;2023-07-20T09:09:17;18.80;99.90
52725;DHT22;38621;52.830;6.914;2023-07-20T09:11:47;18.60;99.90
52725;DHT22;38621;52.830;6.914;2023-07-20T09:14:12;18.70;99.90
52725;DHT22;38621;52.830;6.914;2023-07-20T09:16:47;18.80;99.90
52725;DHT22;38621;52.830;6.914;2023-07-20T09:19:15;19.10;99.90
52725;DHT22;38621;52.830;6.914;2023-07-20T09:21:44;19.20;99.90
52725;DHT22;38621;52.830;6.914;2023-07-20T09:24:11;19.30;99.90
52725;DHT22;38621;52.830;6.914;2023-07-20T09:26:42;19.30;99.90
52725;DHT22;38621;52.830;6.914;2023-07-20T09:29:08;19.50;99.90
52725;DHT22;38621;52.830;6.914;2023-07-20T09:31:37;19.60;99.90
52725;DHT22;38621;52.830;6.914;2023-07-20T09:34:05;19.70;99.90
52725;DHT22;38621;52.830;6.914;2023-07-20T09:36:34;19.70;99.90
52725;DHT22;38621;52.830;6.914;2023-07-20T09:39:00;19.70;99.90
52725;DHT22;38621;52.830;6.914;2023-07-20T09:41:26;19.80;99.90
52725;DHT22;38621;52.830;6.914;2023-07-20T09:43:53;19.90;99.90
52725;DHT22;38621;52.830;6.914;2023-07-20T09:46:19;19.90;99.90
52725;DHT22;38621;52.830;6.914;2023-07-20T09:48:52;19.90;99.90
52725;DHT22;38621;52.830;6.914;2023-07-20T09:51:24;20.10;99.90
52725;DHT22;38621;52.830;6.914;2023-07-20T09:53:52;20.10;99.90
52725;DHT22;38621;52.830;6.914;2023-07-20T09:56:21;20.10;99.90
52725;DHT22;38621;52.830;6.914;2023-07-20T09:58:49;20.30;99.90
52725;DHT22;38621;52.830;6.914;2023-07-20T10:01:19;20.40;99.90
52725;DHT22;38621;52.830;6.914;2023-07-20T10:03:46;20.40;99.90
52725;DHT22;38621;52.830;6.914;2023-07-20T10:06:15;20.50;99.90
52725;DHT22;38621;52.830;6.914;2023-07-20T10:08:45;20.60;99.90
52725;DHT22;38621;52.830;6.914;2023-07-20T10:11:15;20.50;99.90
52725;DHT22;38621;52.830;6.914;2023-07-20T10:13:43;20.30;99.90
52725;DHT22;38621;52.830;6.914;2023-07-20T10:16:11;20.30;99.90
52725;DHT22;38621;52.830;6.914;2023-07-20T10:21:21;20.60;99.90
52725;DHT22;38621;52.830;6.914;2023-07-20T10:23:50;21.00;99.90
52725;DHT22;38621;52.830;6.914;2023-07-20T10:26:15;21.10;99.90
52725;DHT22;38621;52.830;6.914;2023-07-20T10:28:41;21.10;99.90
52725;DHT22;38621;52.830;6.914;2023-07-20T10:31:09;21.10;99.90
52725;DHT22;38621;52.830;6.914;2023-07-20T10:33:36;21.10;99.90
52725;DHT22;38621;52.830;6.914;2023-07-20T10:36:03;21.00;99.90
52725;DHT22;38621;52.830;6.914;2023-07-20T10:38:39;20.80;99.90
52725;DHT22;38621;52.830;6.914;2023-07-20T10:41:19;20.60;99.90
52725;DHT22;38621;52.830;6.914;2023-07-20T10:43:46;20.50;99.90
52725;DHT22;38621;52.830;6.914;2023-07-20T10:46:12;20.20;99.90
52725;DHT22;38621;52.830;6.914;2023-07-20T10:49:01;20.20;99.90
52725;DHT22;38621;52.830;6.914;2023-07-20T10:51:31;20.20;99.90
52725;DHT22;38621;52.830;6.914;2023-07-20T10:54:03;20.20;99.90
52725;DHT22;38621;52.830;6.914;2023-07-20T10:56:29;20.30;99.90
52725;DHT22;38621;52.830;6.914;2023-07-20T10:58:59;20.30;99.90
52725;DHT22;38621;52.830;6.914;2023-07-20T11:01:29;20.40;99.90
52725;DHT22;38621;52.830;6.914;2023-07-20T11:03:58;20.60;99.90
52725;DHT22;38621;52.830;6.914;2023-07-20T11:11:34;20.60;99.90
52725;DHT22;38621;52.830;6.914;2023-07-20T11:14:05;20.30;99.90
52725;DHT22;38621;52.830;6.914;2023-07-20T11:16:35;20.20;99.90
52725;DHT22;38621;52.830;6.914;2023-07-20T11:19:05;20.00;99.90
52725;DHT22;38621;52.830;6.914;2023-07-20T11:21:38;19.90;99.90
52725;DHT22;38621;52.830;6.914;2023-07-20T11:24:07;19.90;99.90
52725;DHT22;38621;52.830;6.914;2023-07-20T11:26:43;20.00;99.90
52725;DHT22;38621;52.830;6.914;2023-07-20T11:29:09;20.00;99.90
52725;DHT22;38621;52.830;6.914;2023-07-20T11:31:39;19.80;99.90
52725;DHT22;38621;52.830;6.914;2023-07-20T11:34:06;19.60;99.90
52725;DHT22;38621;52.830;6.914;2023-07-20T11:36:32;19.50;99.90
52725;DHT22;38621;52.830;6.914;2023-07-20T11:38:59;19.60;99.90
52725;DHT22;38621;52.830;6.914;2023-07-20T11:41:25;19.70;99.90
52725;DHT22;38621;52.830;6.914;2023-07-20T11:43:54;19.70;99.90
52725;DHT22;38621;52.830;6.914;2023-07-20T11:46:20;19.80;99.90
52725;DHT22;38621;52.830;6.914;2023-07-20T11:48:46;19.80;99.90
52725;DHT22;38621;52.830;6.914;2023-07-20T11:51:18;20.10;99.90
52725;DHT22;38621;52.830;6.914;2023-07-20T11:53:44;20.30;99.90
52725;DHT22;38621;52.830;6.914;2023-07-20T11:56:12;20.50;99.90
52725;DHT22;38621;52.830;6.914;2023-07-20T11:58:47;20.60;99.90
52725;DHT22;38621;52.830;6.914;2023-07-20T12:01:13;20.70;99.90
52725;DHT22;38621;52.830;6.914;2023-07-20T12:03:39;20.70;99.90
52725;DHT22;38621;52.830;6.914;2023-07-20T12:06:09;20.80;99.90
52725;DHT22;38621;52.830;6.914;2023-07-20T12:08:34;20.70;99.90
52725;DHT22;38621;52.830;6.914;2023-07-20T12:11:03;20.40;99.90
52725;DHT22;38621;52.830;6.914;2023-07-20T12:13:43;20.20;99.90
52725;DHT22;38621;52.830;6.914;2023-07-20T12:16:15;20.10;99.90
52725;DHT22;38621;52.830;6.914;2023-07-20T12:18:43;20.30;99.90
52725;DHT22;38621;52.830;6.914;2023-07-20T12:21:09;20.30;99.90
52725;DHT22;38621;52.830;6.914;2023-07-20T12:23:40;20.40;99.90
52725;DHT22;38621;52.830;6.914;2023-07-20T12:26:07;20.70;99.90
52725;DHT22;38621;52.830;6.914;2023-07-20T12:28:39;21.00;99.90
52725;DHT22;38621;52.830;6.914;2023-07-20T12:31:05;21.40;99.90
52725;DHT22;38621;52.830;6.914;2023-07-20T12:33:31;21.60;99.90
52725;DHT22;38621;52.830;6.914;2023-07-20T12:35:57;21.70;99.90
52725;DHT22;38621;52.830;6.914;2023-07-20T12:38:25;21.70;99.90
52725;DHT22;38621;52.830;6.914;2023-07-20T12:40:51;21.70;99.90
52725;DHT22;38621;52.830;6.914;2023-07-20T12:43:17;21.80;99.90
52725;DHT22;38621;52.830;6.914;2023-07-20T12:45:43;21.90;99.90
52725;DHT22;38621;52.830;6.914;2023-07-20T12:48:08;21.90;99.90
52725;DHT22;38621;52.830;6.914;2023-07-20T12:50:34;21.70;99.90
52725;DHT22;38621;52.830;6.914;2023-07-20T12:53:00;21.50;99.90
52725;DHT22;38621;52.830;6.914;2023-07-20T12:55:25;21.30;99.90
52725;DHT22;38621;52.830;6.914;2023-07-20T12:57:51;21.10;99.90
52725;DHT22;38621;52.830;6.914;2023-07-20T13:00:18;20.80;99.90
52725;DHT22;38621;52.830;6.914;2023-07-20T13:02:43;20.50;99.90
52725;DHT22;38621;52.830;6.914;2023-07-20T13:05:09;20.10;99.90
52725;DHT22;38621;52.830;6.914;2023-07-20T13:07:39;19.90;99.90
52725;DHT22;38621;52.830;6.914;2023-07-20T13:10:05;19.80;99.90
52725;DHT22;38621;52.830;6.914;2023-07-20T13:12:32;19.70;99.90
52725;DHT22;38621;52.830;6.914;2023-07-20T13:15:00;19.80;99.90
52725;DHT22;38621;52.830;6.914;2023-07-20T13:17:27;19.90;99.90
52725;DHT22;38621;52.830;6.914;2023-07-20T13:19:53;20.10;99.90
52725;DHT22;38621;52.830;6.914;2023-07-20T13:22:19;20.10;99.90
52725;DHT22;38621;52.830;6.914;2023-07-20T13:24:45;20.10;99.90
52725;DHT22;38621;52.830;6.914;2023-07-20T13:27:17;20.10;99.90
52725;DHT22;38621;52.830;6.914;2023-07-20T13:29:44;20.20;99.90
52725;DHT22;38621;52.830;6.914;2023-07-20T13:32:13;20.30;99.90
52725;DHT22;38621;52.830;6.914;2023-07-20T13:34:40;20.50;99.90
52725;DHT22;38621;52.830;6.914;2023-07-20T13:37:05;20.70;99.90
52725;DHT22;38621;52.830;6.914;2023-07-20T13:39:31;20.70;99.90
52725;DHT22;38621;52.830;6.914;2023-07-20T13:41:57;20.90;99.90
52725;DHT22;38621;52.830;6.914;2023-07-20T13:44:23;21.00;99.90
52725;DHT22;38621;52.830;6.914;2023-07-20T13:46:49;21.00;99.90
52725;DHT22;38621;52.830;6.914;2023-07-20T13:49:15;21.00;99.90
52725;DHT22;38621;52.830;6.914;2023-07-20T13:51:41;20.80;99.90
52725;DHT22;38621;52.830;6.914;2023-07-20T13:54:08;20.80;99.90
52725;DHT22;38621;52.830;6.914;2023-07-20T13:56:34;20.80;99.90
52725;DHT22;38621;52.830;6.914;2023-07-20T13:58:59;20.80;99.90
52725;DHT22;38621;52.830;6.914;2023-07-20T14:01:26;20.70;99.90
52725;DHT22;38621;52.830;6.914;2023-07-20T14:03:54;20.70;99.90
52725;DHT22;38621;52.830;6.914;2023-07-20T14:06:20;20.80;99.90
52725;DHT22;38621;52.830;6.914;2023-07-20T14:08:45;20.80;99.90
52725;DHT22;38621;52.830;6.914;2023-07-20T14:11:13;20.70;99.90
52725;DHT22;38621;52.830;6.914;2023-07-20T14:13:39;20.60;99.90
52725;DHT22;38621;52.830;6.914;2023-07-20T14:16:05;20.60;99.90
52725;DHT22;38621;52.830;6.914;2023-07-20T14:18:31;20.40;99.90
52725;DHT22;38621;52.830;6.914;2023-07-20T14:20:56;20.20;99.90
52725;DHT22;38621;52.830;6.914;2023-07-20T14:23:22;20.10;99.90
52725;DHT22;38621;52.830;6.914;2023-07-20T14:25:48;20.00;99.90
52725;DHT22;38621;52.830;6.914;2023-07-20T14:28:14;19.80;99.90
52725;DHT22;38621;52.830;6.914;2023-07-20T14:30:40;19.60;99.90
52725;DHT22;38621;52.830;6.914;2023-07-20T14:33:06;19.50;99.90
52725;DHT22;38621;52.830;6.914;2023-07-20T14:35:31;19.50;99.90
52725;DHT22;38621;52.830;6.914;2023-07-20T14:37:57;19.50;99.90
52725;DHT22;38621;52.830;6.914;2023-07-20T14:40:23;19.70;99.90
52725;DHT22;38621;52.830;6.914;2023-07-20T14:42:49;19.80;99.90
52725;DHT22;38621;52.830;6.914;2023-07-20T14:45:15;19.90;99.90
52725;DHT22;38621;52.830;6.914;2023-07-20T14:47:41;19.80;99.90
52725;DHT22;38621;52.830;6.914;2023-07-20T14:50:08;19.70;99.90
52725;DHT22;38621;52.830;6.914;2023-07-20T14:52:34;19.80;99.90
52725;DHT22;38621;52.830;6.914;2023-07-20T14:55:00;19.90;99.90
52725;DHT22;38621;52.830;6.914;2023-07-20T14:57:26;20.30;99.90
52725;DHT22;38621;52.830;6.914;2023-07-20T14:59:52;20.70;99.90
52725;DHT22;38621;52.830;6.914;2023-07-20T15:02:18;21.20;99.90
52725;DHT22;38621;52.830;6.914;2023-07-20T15:04:50;21.30;99.90
52725;DHT22;38621;52.830;6.914;2023-07-20T15:07:20;21.50;99.90
52725;DHT22;38621;52.830;6.914;2023-07-20T15:09:49;21.70;99.90
52725;DHT22;38621;52.830;6.914;2023-07-20T15:12:15;21.50;99.90
52725;DHT22;38621;52.830;6.914;2023-07-20T15:14:42;21.30;99.90
52725;DHT22;38621;52.830;6.914;2023-07-20T15:17:09;21.00;99.90
52725;DHT22;38621;52.830;6.914;2023-07-20T15:19:35;21.00;99.90
52725;DHT22;38621;52.830;6.914;2023-07-20T15:22:02;21.10;99.90
52725;DHT22;38621;52.830;6.914;2023-07-20T15:24:29;21.00;99.90
52725;DHT22;38621;52.830;6.914;2023-07-20T15:26:54;20.90;99.90
52725;DHT22;38621;52.830;6.914;2023-07-20T15:29:20;20.80;99.90
52725;DHT22;38621;52.830;6.914;2023-07-20T15:31:47;20.70;99.90
52725;DHT22;38621;52.830;6.914;2023-07-20T15:34:13;20.70;99.90
52725;DHT22;38621;52.830;6.914;2023-07-20T15:36:41;20.60;99.90
52725;DHT22;38621;52.830;6.914;2023-07-20T15:39:07;20.60;99.90
52725;DHT22;38621;52.830;6.914;2023-07-20T15:41:33;20.60;99.90
52725;DHT22;38621;52.830;6.914;2023-07-20T15:43:59;20.60;99.90
52725;DHT22;38621;52.830;6.914;2023-07-20T15:49:06;21.60;99.90
52725;DHT22;38621;52.830;6.914;2023-07-20T15:51:35;22.40;99.90
52725;DHT22;38621;52.830;6.914;2023-07-20T15:54:02;23.50;99.90